Time;durP1;ratioP1;P1;durP2;ratioP2;P2;SDS_P1;SDS_P2;PMS_P1;PMS_P2;Temp;Humidity;BMP_temperature;BMP_pressure;BME280_temperature;BME280_humidity;BME280_pressure;Samples;Min_cycle;Max_cycle;Signal;HPM_P1;HPM_P2
2023/03/07 00:02:25;;;;;;;38.50;20.65;;;1.70;99.90;;;;;;5045428;28;20103;-78
2023/03/07 00:04:51;;;;;;;53.25;25.15;;;1.60;99.90;;;;;;5050092;28;20110;-77
2023/03/07 00:07:18;;;;;;;45.17;23.63;;;1.70;99.90;;;;;;5055116;28;20040;-77
2023/03/07 00:09:45;;;;;;;44.15;20.90;;;1.70;99.90;;;;;;5045663;28;20053;-78
2023/03/07 00:12:11;;;;;;;47.63;26.42;;;1.70;99.90;;;;;;5047638;28;20051;-77
2023/03/07 00:14:38;;;;;;;45.97;22.83;;;1.70;99.90;;;;;;5049391;28;20032;-78
2023/03/07 00:17:05;;;;;;;43.15;23.50;;;1.70;99.90;;;;;;5051615;28;20053;-80
2023/03/07 00:19:32;;;;;;;44.33;23.33;;;1.70;99.90;;;;;;5045619;28;20044;-78
2023/03/07 00:21:58;;;;;;;50.22;24.83;;;1.70;99.90;;;;;;5030705;28;20052;-79
2023/03/07 00:24:25;;;;;;;39.80;20.48;;;1.70;99.90;;;;;;5040509;28;20220;-78
2023/03/07 00:26:52;;;;;;;38.05;19.50;;;1.70;99.90;;;;;;5050457;28;20043;-78
2023/03/07 00:29:18;;;;;;;53.88;24.75;;;1.60;99.90;;;;;;5023575;28;20064;-79
2023/03/07 00:31:47;;;;;;;48.22;23.35;;;1.60;99.90;;;;;;5043855;28;20051;-78
2023/03/07 00:34:14;;;;;;;51.42;22.10;;;1.60;99.90;;;;;;5049335;28;20135;-80
2023/03/07 00:36:40;;;;;;;39.05;19.58;;;1.60;99.90;;;;;;5047165;28;20091;-79
2023/03/07 00:39:07;;;;;;;42.60;20.77;;;1.60;99.90;;;;;;5042118;28;20409;-79
2023/03/07 00:41:34;;;;;;;38.10;21.67;;;1.70;99.90;;;;;;5038823;28;20079;-80
2023/03/07 00:44:01;;;;;;;44.58;20.67;;;1.70;99.90;;;;;;5047024;28;20044;-79
2023/03/07 00:46:28;;;;;;;40.97;20.38;;;1.70;99.90;;;;;;5044278;28;20059;-79
2023/03/07 00:48:55;;;;;;;44.75;19.98;;;1.70;99.90;;;;;;5034189;28;20044;-79
2023/03/07 00:51:23;;;;;;;34.63;17.25;;;1.70;99.90;;;;;;5033699;28;20114;-77
2023/03/07 00:53:50;;;;;;;37.78;19.25;;;1.70;99.90;;;;;;5034135;28;20044;-77
2023/03/07 00:56:23;;;;;;;41.53;18.50;;;1.60;99.90;;;;;;5010073;28;20068;-80
2023/03/07 00:58:51;;;;;;;33.13;16.92;;;1.60;99.90;;;;;;5011869;28;20069;-78
2023/03/07 01:01:20;;;;;;;43.03;19.60;;;1.60;99.90;;;;;;5016376;28;20048;-79
2023/03/07 01:03:48;;;;;;;36.30;17.42;;;1.60;99.90;;;;;;5015674;28;20044;-79
2023/03/07 01:06:17;;;;;;;38.70;18.15;;;1.60;99.90;;;;;;5002657;28;20043;-81
2023/03/07 01:08:45;;;;;;;36.67;16.48;;;1.60;99.90;;;;;;4988496;28;20594;-80
2023/03/07 01:11:14;;;;;;;35.88;17.25;;;1.60;99.90;;;;;;4997668;28;20046;-80
2023/03/07 01:13:41;;;;;;;38.55;18.58;;;1.70;99.90;;;;;;5003104;28;20042;-81
2023/03/07 01:16:12;;;;;;;33.13;16.63;;;1.70;99.90;;;;;;5007774;28;20084;-79
2023/03/07 01:18:41;;;;;;;37.88;17.67;;;1.70;99.90;;;;;;5008682;28;20506;-79
2023/03/07 01:21:13;;;;;;;38.75;17.40;;;1.70;99.90;;;;;;5009333;28;20069;-79
2023/03/07 01:23:40;;;;;;;44.95;17.20;;;1.70;99.90;;;;;;5008130;28;20275;-82
2023/03/07 01:26:17;;;;;;;41.75;18.00;;;1.70;99.90;;;;;;4990895;28;20409;-79
2023/03/07 01:28:44;;;;;;;43.20;17.88;;;1.70;99.90;;;;;;5009369;28;20518;-81
2023/03/07 01:31:11;;;;;;;33.00;17.55;;;1.70;99.90;;;;;;5009388;28;20081;-80
2023/03/07 01:33:39;;;;;;;29.17;15.80;;;1.70;99.90;;;;;;4996323;28;20396;-80
2023/03/07 01:36:24;;;;;;;34.38;16.95;;;1.70;99.90;;;;;;5011697;28;20037;-79
2023/03/07 01:38:57;;;;;;;34.97;16.00;;;1.70;99.90;;;;;;5015908;28;20036;-79
2023/03/07 01:41:28;;;;;;;31.77;15.07;;;1.70;99.90;;;;;;5012477;28;20045;-79
2023/03/07 01:43:55;;;;;;;28.63;14.18;;;1.80;99.90;;;;;;4997055;28;20053;-79
2023/03/07 01:46:36;;;;;;;27.50;13.00;;;1.80;99.90;;;;;;5002571;28;20358;-80
2023/03/07 01:49:10;;;;;;;29.67;16.27;;;1.80;99.90;;;;;;5020006;28;20136;-78
2023/03/07 01:51:42;;;;;;;34.28;15.40;;;1.80;99.90;;;;;;5042885;28;20075;-81
2023/03/07 01:54:10;;;;;;;25.77;12.90;;;1.80;99.90;;;;;;5041004;28;20047;-79
2023/03/07 01:56:38;;;;;;;32.67;14.55;;;1.80;99.90;;;;;;5028794;28;20115;-79
2023/03/07 01:59:05;;;;;;;18.27;10.55;;;1.80;99.90;;;;;;5048208;28;20540;-81
2023/03/07 02:01:33;;;;;;;26.92;11.75;;;1.90;99.90;;;;;;5039754;28;20181;-80
2023/03/07 02:04:10;;;;;;;24.45;13.40;;;1.90;99.90;;;;;;5022541;28;20155;-79
2023/03/07 02:06:38;;;;;;;20.35;10.18;;;2.00;99.90;;;;;;5029470;28;20864;-79
2023/03/07 02:09:12;;;;;;;22.75;11.65;;;2.00;99.90;;;;;;5025946;28;20045;-82
2023/03/07 02:11:43;;;;;;;15.60;10.43;;;2.10;99.90;;;;;;5037014;28;20045;-79
2023/03/07 02:14:10;;;;;;;18.02;10.05;;;2.10;99.90;;;;;;5044702;28;20485;-80
2023/03/07 02:16:38;;;;;;;18.98;10.55;;;2.10;99.90;;;;;;5030839;28;20502;-81
2023/03/07 02:19:33;;;;;;;21.63;11.85;;;2.10;99.90;;;;;;5047566;28;20075;-81
2023/03/07 02:22:12;;;;;;;21.00;11.02;;;2.00;99.90;;;;;;5034286;28;20044;-80
2023/03/07 02:24:50;;;;;;;18.20;9.77;;;2.00;99.90;;;;;;5042758;28;20557;-81
2023/03/07 02:27:17;;;;;;;18.15;9.90;;;2.10;99.90;;;;;;5041074;28;20473;-78
2023/03/07 02:29:44;;;;;;;16.90;9.15;;;2.10;99.90;;;;;;5016640;28;20052;-80
2023/03/07 02:32:13;;;;;;;21.83;10.45;;;2.10;99.90;;;;;;5031412;28;20047;-79
2023/03/07 02:34:40;;;;;;;16.52;9.57;;;2.20;99.90;;;;;;5022370;28;20044;-81
2023/03/07 02:37:27;;;;;;;16.15;8.82;;;2.20;99.90;;;;;;5028972;28;20520;-80
2023/03/07 02:39:57;;;;;;;19.20;10.10;;;2.20;99.90;;;;;;5037180;28;20338;-79
2023/03/07 02:42:27;;;;;;;15.15;7.53;;;2.20;99.90;;;;;;5035665;28;20107;-78
2023/03/07 02:45:05;;;;;;;16.77;9.07;;;2.30;99.90;;;;;;5018858;28;20055;-78
2023/03/07 02:47:34;;;;;;;16.90;8.32;;;2.30;99.90;;;;;;5038798;28;20312;-78
2023/03/07 02:50:01;;;;;;;12.05;6.70;;;2.30;99.90;;;;;;5030232;28;20279;-82
2023/03/07 02:52:28;;;;;;;13.80;7.82;;;2.40;99.90;;;;;;5038141;28;20056;-82
2023/03/07 02:54:57;;;;;;;11.82;6.63;;;2.40;99.90;;;;;;5022067;28;20052;-80
2023/03/07 02:57:27;;;;;;;11.27;6.47;;;2.40;99.90;;;;;;5044016;28;20060;-77
2023/03/07 02:59:54;;;;;;;14.70;7.97;;;2.50;99.90;;;;;;5037968;28;20406;-78
2023/03/07 03:02:21;;;;;;;9.50;7.30;;;2.50;99.90;;;;;;5040870;28;20043;-81
2023/03/07 03:04:48;;;;;;;9.68;6.75;;;2.50;99.90;;;;;;5032563;28;20358;-81
2023/03/07 03:07:15;;;;;;;8.70;5.60;;;2.60;99.90;;;;;;5023643;28;20045;-81
2023/03/07 03:09:41;;;;;;;10.82;6.55;;;2.60;99.90;;;;;;5040766;28;20395;-79
2023/03/07 03:12:08;;;;;;;10.57;7.30;;;2.60;99.90;;;;;;5034485;28;20055;-80
2023/03/07 03:14:35;;;;;;;16.65;9.07;;;2.60;99.90;;;;;;5039667;28;20305;-79
2023/03/07 03:17:02;;;;;;;9.85;6.53;;;2.70;99.90;;;;;;5041912;28;20118;-79
2023/03/07 03:19:29;;;;;;;13.93;7.38;;;2.70;99.90;;;;;;5037284;28;20135;-79
2023/03/07 03:21:56;;;;;;;12.10;7.22;;;2.70;99.90;;;;;;5022422;28;20041;-80
2023/03/07 03:24:25;;;;;;;12.00;8.38;;;2.70;99.90;;;;;;5025569;28;20320;-79
2023/03/07 03:26:56;;;;;;;8.40;6.20;;;2.70;99.90;;;;;;5074761;28;20143;-80
2023/03/07 03:29:25;;;;;;;10.88;7.38;;;2.70;99.90;;;;;;5047860;28;20048;-79
2023/03/07 03:31:55;;;;;;;11.10;7.30;;;2.70;99.90;;;;;;5033151;28;20037;-77
2023/03/07 03:34:22;;;;;;;11.10;7.50;;;2.70;99.90;;;;;;5014877;28;20299;-78
2023/03/07 03:36:50;;;;;;;11.15;7.57;;;2.80;99.90;;;;;;5044615;28;20040;-80
2023/03/07 03:39:17;;;;;;;12.40;8.82;;;2.80;99.90;;;;;;5021356;28;20402;-78
2023/03/07 03:41:48;;;;;;;11.85;8.35;;;2.80;99.90;;;;;;5037232;28;20055;-79
2023/03/07 03:44:16;;;;;;;10.00;7.88;;;2.80;99.90;;;;;;5045969;28;20045;-78
2023/03/07 03:46:43;;;;;;;13.30;9.50;;;2.80;99.90;;;;;;5045087;28;20064;-77
2023/03/07 03:49:15;;;;;;;16.98;9.20;;;2.80;99.90;;;;;;5036202;28;20068;-77
2023/03/07 03:51:43;;;;;;;12.10;8.77;;;2.70;99.90;;;;;;5027818;28;20079;-76
2023/03/07 03:54:10;;;;;;;12.82;8.32;;;2.80;99.90;;;;;;5039036;28;20141;-77
2023/03/07 03:56:37;;;;;;;16.77;11.15;;;2.80;99.90;;;;;;5020683;28;20091;-81
2023/03/07 03:59:04;;;;;;;15.55;9.75;;;2.80;99.90;;;;;;5032123;28;20183;-77
2023/03/07 04:01:30;;;;;;;15.02;9.98;;;2.80;99.90;;;;;;5040809;28;20131;-77
2023/03/07 04:03:58;;;;;;;11.35;8.00;;;2.80;99.90;;;;;;5018860;28;20506;-76
2023/03/07 04:06:27;;;;;;;14.00;8.80;;;2.80;99.90;;;;;;5043144;28;20052;-78
2023/03/07 04:08:55;;;;;;;14.60;9.63;;;2.80;99.90;;;;;;5042848;28;20063;-77
2023/03/07 04:11:23;;;;;;;12.25;9.27;;;2.80;99.90;;;;;;5048341;28;20131;-79
2023/03/07 04:13:51;;;;;;;16.95;10.20;;;2.80;99.90;;;;;;5034300;28;20045;-77
2023/03/07 04:16:21;;;;;;;12.32;9.10;;;2.80;99.90;;;;;;5041591;28;20036;-76
2023/03/07 04:18:49;;;;;;;11.35;8.70;;;2.90;99.90;;;;;;5036304;28;20098;-78
2023/03/07 04:21:17;;;;;;;13.32;9.40;;;2.90;99.90;;;;;;5047941;28;20045;-79
2023/03/07 04:23:44;;;;;;;13.43;9.23;;;2.90;99.90;;;;;;5045696;28;20044;-75
2023/03/07 04:26:11;;;;;;;15.43;9.93;;;2.90;99.90;;;;;;5032894;28;20132;-77
2023/03/07 04:28:48;;;;;;;15.25;10.15;;;2.90;99.90;;;;;;5017565;28;20060;-74
2023/03/07 04:31:22;;;;;;;17.23;10.90;;;2.90;99.90;;;;;;5025602;28;20110;-76
2023/03/07 04:33:52;;;;;;;12.40;9.00;;;2.90;99.90;;;;;;5046105;28;20500;-77
2023/03/07 04:36:20;;;;;;;11.07;8.32;;;2.80;99.90;;;;;;5025663;28;20307;-77
2023/03/07 04:38:48;;;;;;;11.00;8.82;;;2.80;99.90;;;;;;5018478;28;20044;-77
2023/03/07 04:41:21;;;;;;;12.02;8.43;;;2.80;99.90;;;;;;5051313;28;20049;-76
2023/03/07 04:43:52;;;;;;;13.38;10.13;;;2.80;99.90;;;;;;5045701;28;20040;-75
2023/03/07 04:46:21;;;;;;;13.10;7.97;;;2.70;99.90;;;;;;5026687;28;20099;-77
2023/03/07 04:48:48;;;;;;;15.95;10.35;;;2.70;99.90;;;;;;5034563;28;20043;-76
2023/03/07 04:51:15;;;;;;;14.15;8.73;;;2.70;99.90;;;;;;5043495;28;20312;-75
2023/03/07 04:53:43;;;;;;;16.65;10.27;;;2.70;99.90;;;;;;5044984;28;20101;-77
2023/03/07 04:56:10;;;;;;;16.77;10.73;;;2.70;99.90;;;;;;5022960;28;20046;-75
2023/03/07 04:58:38;;;;;;;15.77;9.65;;;2.70;99.90;;;;;;5053098;28;20048;-77
2023/03/07 05:01:05;;;;;;;16.10;9.90;;;2.70;99.90;;;;;;5041637;28;20131;-77
2023/03/07 05:03:34;;;;;;;15.60;10.23;;;2.70;99.90;;;;;;5051641;28;20036;-76
2023/03/07 05:06:04;;;;;;;14.18;9.88;;;2.70;99.90;;;;;;5042360;28;20040;-75
2023/03/07 05:08:31;;;;;;;12.32;8.10;;;2.60;99.90;;;;;;5041359;28;20052;-76
2023/03/07 05:10:58;;;;;;;15.63;10.07;;;2.60;99.90;;;;;;5027393;28;20048;-79
2023/03/07 05:13:25;;;;;;;14.93;10.05;;;2.60;99.90;;;;;;5032039;28;20048;-77
2023/03/07 05:15:53;;;;;;;16.58;9.38;;;2.60;99.90;;;;;;5049366;28;20040;-77
2023/03/07 05:18:22;;;;;;;16.90;10.05;;;2.60;99.90;;;;;;5065645;28;20047;-78
2023/03/07 05:20:50;;;;;;;16.77;10.30;;;2.60;99.90;;;;;;5066319;28;20040;-76
2023/03/07 05:23:18;;;;;;;16.08;8.57;;;2.60;99.90;;;;;;5050322;28;20059;-78
2023/03/07 05:25:47;;;;;;;14.48;8.27;;;2.60;99.90;;;;;;5045863;28;20045;-79
2023/03/07 05:28:15;;;;;;;11.75;7.35;;;2.60;99.90;;;;;;5067210;28;20146;-79
2023/03/07 05:30:46;;;;;;;14.18;8.93;;;2.60;99.90;;;;;;5040686;28;20044;-79
2023/03/07 05:33:13;;;;;;;12.27;7.18;;;2.60;99.90;;;;;;5043598;28;20041;-79
2023/03/07 05:35:41;;;;;;;12.65;8.35;;;2.60;99.90;;;;;;5037281;28;20041;-79
2023/03/07 05:38:10;;;;;;;13.35;8.20;;;2.60;99.90;;;;;;5019909;28;20048;-77
2023/03/07 05:40:37;;;;;;;13.45;8.73;;;2.60;99.90;;;;;;5046625;28;20053;-77
2023/03/07 05:43:05;;;;;;;11.88;7.55;;;2.60;99.90;;;;;;5037965;28;20492;-78
2023/03/07 05:45:33;;;;;;;14.02;8.05;;;2.60;99.90;;;;;;5035918;28;20430;-79
2023/03/07 05:48:00;;;;;;;10.55;7.15;;;2.50;99.90;;;;;;5052864;28;20056;-78
2023/03/07 05:50:29;;;;;;;14.40;8.00;;;2.50;99.90;;;;;;5039792;28;20139;-79
2023/03/07 05:52:56;;;;;;;11.27;7.82;;;2.50;99.90;;;;;;5031034;28;20573;-77
2023/03/07 05:55:26;;;;;;;18.23;9.57;;;2.50;99.90;;;;;;5025860;28;20228;-78
2023/03/07 05:57:53;;;;;;;17.75;9.15;;;2.40;99.90;;;;;;5038814;28;20037;-78
2023/03/07 06:00:20;;;;;;;15.57;9.35;;;2.40;99.90;;;;;;5047956;28;20033;-79
2023/03/07 06:02:53;;;;;;;13.55;7.80;;;2.40;99.90;;;;;;5039482;28;20045;-79
2023/03/07 06:05:20;;;;;;;12.75;7.78;;;2.40;99.90;;;;;;5045451;28;20045;-81
2023/03/07 06:07:47;;;;;;;17.67;9.93;;;2.40;99.90;;;;;;5044878;28;20040;-81
2023/03/07 06:10:15;;;;;;;15.27;9.63;;;2.40;99.90;;;;;;5049661;28;20500;-80
2023/03/07 06:12:42;;;;;;;15.20;9.50;;;2.40;99.90;;;;;;5040846;28;20041;-80
2023/03/07 06:15:09;;;;;;;16.80;10.25;;;2.40;99.90;;;;;;5037792;28;20105;-82
2023/03/07 06:17:36;;;;;;;15.73;9.70;;;2.40;99.90;;;;;;5045405;28;20059;-79
2023/03/07 06:20:04;;;;;;;17.80;9.95;;;2.40;99.90;;;;;;5028136;28;20049;-79
2023/03/07 06:22:33;;;;;;;18.70;11.30;;;2.40;99.90;;;;;;5039391;28;20045;-80
2023/03/07 06:25:01;;;;;;;18.40;10.07;;;2.40;99.90;;;;;;5039254;28;20051;-80
2023/03/07 06:27:34;;;;;;;22.20;12.55;;;2.40;99.90;;;;;;5046771;28;20556;-78
2023/03/07 06:30:04;;;;;;;18.48;11.90;;;2.40;99.90;;;;;;5045808;28;20044;-80
2023/03/07 06:32:31;;;;;;;18.88;10.38;;;2.40;99.90;;;;;;5046567;28;20048;-79
2023/03/07 06:34:58;;;;;;;16.90;10.85;;;2.50;99.90;;;;;;5033249;28;20580;-79
2023/03/07 06:37:26;;;;;;;18.60;11.13;;;2.50;99.90;;;;;;5042991;28;20079;-80
2023/03/07 06:39:56;;;;;;;16.20;10.52;;;2.50;99.90;;;;;;5033355;28;20123;-79
2023/03/07 06:42:23;;;;;;;21.23;12.20;;;2.50;99.90;;;;;;5040081;28;20049;-78
2023/03/07 06:44:50;;;;;;;16.20;9.68;;;2.50;99.90;;;;;;5043743;28;20044;-80
2023/03/07 06:47:18;;;;;;;19.73;11.68;;;2.50;99.90;;;;;;5021876;28;20068;-80
2023/03/07 06:49:45;;;;;;;20.05;11.75;;;2.50;99.90;;;;;;5029849;28;20045;-79
2023/03/07 06:52:11;;;;;;;19.83;11.75;;;2.50;99.90;;;;;;5042915;28;20257;-81
2023/03/07 06:54:38;;;;;;;19.88;10.98;;;2.50;99.90;;;;;;5041704;28;20045;-78
2023/03/07 06:57:06;;;;;;;15.00;9.95;;;2.50;99.90;;;;;;5040101;28;20506;-79
2023/03/07 06:59:32;;;;;;;18.08;12.18;;;2.50;99.90;;;;;;5037032;28;20242;-80
2023/03/07 07:02:03;;;;;;;15.50;9.65;;;2.50;99.90;;;;;;5031871;28;20048;-81
2023/03/07 07:04:32;;;;;;;17.63;10.80;;;2.50;99.90;;;;;;5033590;28;20037;-81
2023/03/07 07:06:59;;;;;;;20.02;11.10;;;2.50;99.90;;;;;;5021586;28;20537;-78
2023/03/07 07:09:27;;;;;;;18.60;11.88;;;2.50;99.90;;;;;;5036241;28;20506;-80
2023/03/07 07:11:54;;;;;;;19.48;12.00;;;2.50;99.90;;;;;;5024380;28;20079;-77
2023/03/07 07:14:22;;;;;;;18.73;11.52;;;2.60;99.90;;;;;;5034033;28;20037;-78
2023/03/07 07:16:48;;;;;;;19.20;11.88;;;2.50;99.90;;;;;;5016956;28;20531;-80
2023/03/07 07:19:15;;;;;;;18.15;11.48;;;2.60;99.90;;;;;;5027750;28;20044;-78
2023/03/07 07:21:42;;;;;;;16.92;11.07;;;2.60;99.90;;;;;;5043741;28;20041;-79
2023/03/07 07:24:11;;;;;;;17.38;11.30;;;2.60;99.90;;;;;;5039315;28;20055;-80
2023/03/07 07:26:38;;;;;;;13.05;8.68;;;2.60;99.90;;;;;;5025104;28;20098;-77
2023/03/07 07:29:05;;;;;;;16.08;10.45;;;2.60;99.90;;;;;;5038206;28;20182;-80
2023/03/07 07:31:32;;;;;;;14.82;10.90;;;2.60;99.90;;;;;;5021146;28;20043;-79
2023/03/07 07:33:59;;;;;;;15.18;9.57;;;2.70;99.90;;;;;;5045934;28;20143;-78
2023/03/07 07:36:29;;;;;;;12.93;9.02;;;2.70;99.90;;;;;;5025782;28;20041;-80
2023/03/07 07:38:56;;;;;;;13.10;8.77;;;2.70;99.90;;;;;;5033080;28;20367;-78
2023/03/07 07:41:23;;;;;;;12.35;8.80;;;2.70;99.90;;;;;;5036795;28;20044;-78
2023/03/07 07:43:53;;;;;;;10.80;7.50;;;2.70;99.90;;;;;;5043041;28;20171;-78
2023/03/07 07:46:32;;;;;;;10.02;7.53;;;2.70;99.90;;;;;;5019493;28;20353;-79
2023/03/07 07:48:59;;;;;;;12.18;8.70;;;2.70;99.90;;;;;;5037375;28;20320;-78
2023/03/07 07:51:26;;;;;;;8.30;6.68;;;2.70;99.90;;;;;;5043505;28;20134;-76
2023/03/07 07:53:53;;;;;;;8.40;7.13;;;2.70;99.90;;;;;;5030012;28;20105;-79
2023/03/07 07:56:20;;;;;;;10.27;7.20;;;2.80;99.90;;;;;;5041670;28;20048;-78
2023/03/07 07:58:46;;;;;;;9.98;7.53;;;2.70;99.90;;;;;;5041253;28;20479;-77
2023/03/07 08:01:16;;;;;;;10.82;7.85;;;2.60;99.90;;;;;;5048788;28;20357;-79
2023/03/07 08:03:43;;;;;;;9.70;7.93;;;2.60;99.90;;;;;;5039325;28;20284;-79
2023/03/07 08:06:10;;;;;;;11.73;8.10;;;2.60;99.90;;;;;;5027874;28;20133;-80
2023/03/07 08:08:37;;;;;;;12.73;9.50;;;2.70;99.90;;;;;;5065998;28;20231;-79
2023/03/07 08:11:04;;;;;;;10.38;8.23;;;2.70;99.90;;;;;;5052366;28;20039;-79
2023/03/07 08:13:31;;;;;;;9.13;7.03;;;2.70;99.90;;;;;;5050251;28;20572;-80
2023/03/07 08:15:58;;;;;;;11.20;7.80;;;2.70;99.90;;;;;;5050467;28;20074;-79
2023/03/07 08:18:25;;;;;;;11.88;9.18;;;2.70;99.90;;;;;;5048525;28;20066;-80
2023/03/07 08:20:51;;;;;;;15.65;10.13;;;2.70;99.90;;;;;;5028478;28;20040;-79
2023/03/07 08:23:18;;;;;;;13.43;9.27;;;2.60;99.90;;;;;;5052363;28;21494;-79
2023/03/07 08:25:45;;;;;;;13.95;8.98;;;2.60;99.90;;;;;;5053430;28;20037;-78
2023/03/07 08:28:11;;;;;;;12.15;8.98;;;2.60;99.90;;;;;;5051085;28;20048;-79
2023/03/07 08:30:38;;;;;;;10.43;7.00;;;2.60;99.90;;;;;;5031620;28;20043;-78
2023/03/07 08:33:06;;;;;;;12.45;8.85;;;2.70;99.90;;;;;;5021596;28;20432;-81
2023/03/07 08:35:32;;;;;;;12.55;8.25;;;2.60;99.90;;;;;;5034873;28;20332;-80
2023/03/07 08:37:59;;;;;;;12.20;8.23;;;2.60;99.90;;;;;;5045738;28;20529;-79
2023/03/07 08:40:28;;;;;;;14.45;9.55;;;2.60;99.90;;;;;;5043633;28;20400;-79
2023/03/07 08:42:55;;;;;;;13.50;9.13;;;2.60;99.90;;;;;;5048688;28;20405;-79
2023/03/07 08:45:22;;;;;;;15.55;10.10;;;2.60;99.90;;;;;;5031206;28;20446;-80
2023/03/07 08:47:53;;;;;;;17.63;11.35;;;2.60;99.90;;;;;;5044042;28;20149;-80
2023/03/07 08:50:21;;;;;;;18.92;10.60;;;2.60;99.90;;;;;;5044104;28;20049;-81
2023/03/07 08:52:48;;;;;;;19.42;11.10;;;2.60;99.90;;;;;;5047447;28;20045;-80
2023/03/07 08:55:15;;;;;;;24.70;13.70;;;2.40;99.90;;;;;;5021798;28;20050;-79
2023/03/07 08:57:44;;;;;;;22.23;12.75;;;2.30;99.90;;;;;;5042290;28;20135;-80
2023/03/07 09:00:11;;;;;;;23.48;14.43;;;2.20;99.90;;;;;;5029352;28;20469;-78
2023/03/07 09:02:38;;;;;;;22.17;13.38;;;2.10;99.90;;;;;;5035768;28;20059;-80
2023/03/07 09:05:05;;;;;;;23.08;14.70;;;2.00;99.90;;;;;;5035576;28;20657;-79
2023/03/07 09:07:32;;;;;;;21.23;13.05;;;1.90;99.90;;;;;;5030735;28;20041;-80
2023/03/07 09:09:59;;;;;;;22.88;13.02;;;1.80;99.90;;;;;;5033221;28;20049;-78
2023/03/07 09:12:26;;;;;;;13.95;8.80;;;1.70;99.90;;;;;;5025206;28;20041;-80
2023/03/07 09:14:53;;;;;;;7.93;5.70;;;1.60;99.90;;;;;;5043537;28;20049;-78
2023/03/07 09:17:20;;;;;;;7.13;5.80;;;1.50;99.90;;;;;;5049460;28;20330;-80
2023/03/07 09:19:49;;;;;;;7.25;4.75;;;1.40;99.90;;;;;;5022087;28;20072;-79
2023/03/07 09:22:16;;;;;;;10.60;5.68;;;1.30;99.90;;;;;;5044364;28;20048;-80
2023/03/07 09:24:42;;;;;;;7.07;4.53;;;1.30;99.90;;;;;;5038781;28;20041;-79
2023/03/07 09:27:10;;;;;;;6.70;4.68;;;1.20;99.90;;;;;;5025551;28;20045;-78
2023/03/07 09:29:37;;;;;;;7.88;4.90;;;1.20;99.90;;;;;;5042912;28;20374;-82
2023/03/07 09:32:03;;;;;;;5.15;3.63;;;1.20;99.90;;;;;;5051657;28;20521;-80
2023/03/07 09:34:30;;;;;;;4.70;4.13;;;1.20;99.90;;;;;;5023226;28;20082;-79
2023/03/07 09:36:57;;;;;;;5.20;4.15;;;1.20;99.90;;;;;;5039954;28;20530;-81
2023/03/07 09:39:24;;;;;;;4.68;3.28;;;1.20;99.90;;;;;;5037924;28;20510;-80
2023/03/07 09:42:24;;;;;;;4.50;3.67;;;1.20;99.90;;;;;;5039590;28;20059;-79
2023/03/07 09:45:20;;;;;;;3.17;2.90;;;1.20;99.90;;;;;;5032377;28;20045;-79
2023/03/07 09:47:56;;;;;;;2.90;2.70;;;1.10;99.90;;;;;;5049853;28;20076;-79
2023/03/07 09:50:38;;;;;;;4.47;3.55;;;1.10;99.90;;;;;;5055833;28;20049;-79
2023/03/07 09:53:11;;;;;;;3.42;2.83;;;1.10;99.90;;;;;;5032609;28;20040;-80
2023/03/07 09:55:39;;;;;;;3.28;2.97;;;1.20;99.90;;;;;;5033107;28;20105;-79
2023/03/07 09:58:13;;;;;;;3.17;2.95;;;1.10;99.90;;;;;;5023259;28;20059;-80
2023/03/07 10:00:42;;;;;;;3.78;3.47;;;1.20;99.90;;;;;;5045108;28;20134;-79
2023/03/07 10:03:31;;;;;;;7.35;4.15;;;1.00;99.90;;;;;;5040616;28;20044;-79
2023/03/07 10:06:06;;;;;;;5.68;4.13;;;1.20;99.90;;;;;;5047089;28;20528;-80
2023/03/07 10:08:33;;;;;;;5.25;4.75;;;1.30;99.90;;;;;;5040172;28;20325;-80
2023/03/07 10:11:22;;;;;;;5.75;5.25;;;1.40;99.90;;;;;;5033204;28;20048;-81
2023/03/07 10:14:01;;;;;;;7.43;4.90;;;1.40;99.90;;;;;;5031581;28;20087;-82
2023/03/07 10:16:47;;;;;;;7.53;4.47;;;1.50;99.90;;;;;;5023663;28;20387;-80
2023/03/07 10:19:35;;;;;;;5.55;5.00;;;1.40;99.90;;;;;;5032971;28;20494;-81
2023/03/07 10:22:26;;;;;;;7.93;7.00;;;1.50;99.90;;;;;;5042725;28;20075;-80
2023/03/07 10:25:05;;;;;;;7.30;5.43;;;1.60;99.90;;;;;;5047110;28;20044;-80
2023/03/07 10:27:32;;;;;;;6.05;5.03;;;1.70;99.90;;;;;;5045310;28;20138;-80
2023/03/07 10:30:05;;;;;;;6.57;5.30;;;1.70;99.90;;;;;;5027166;28;20037;-79
2023/03/07 10:32:38;;;;;;;6.05;5.55;;;1.70;99.90;;;;;;5022174;28;20041;-81
2023/03/07 10:35:11;;;;;;;6.80;5.78;;;1.60;99.90;;;;;;5049522;28;20455;-80
2023/03/07 10:37:44;;;;;;;5.38;4.97;;;1.70;99.90;;;;;;5049290;28;20068;-80
2023/03/07 10:40:41;;;;;;;6.25;5.75;;;1.80;99.90;;;;;;5041529;28;20041;-79
2023/03/07 10:43:21;;;;;;;7.35;6.57;;;1.80;99.90;;;;;;5036948;28;20155;-79
2023/03/07 10:45:48;;;;;;;6.90;6.20;;;1.80;99.90;;;;;;5045350;28;20040;-79
2023/03/07 10:48:19;;;;;;;6.88;6.28;;;1.90;99.90;;;;;;5030100;28;20071;-81
2023/03/07 10:51:04;;;;;;;7.50;6.50;;;1.90;99.90;;;;;;5034292;28;20055;-80
2023/03/07 10:53:35;;;;;;;5.93;5.43;;;1.90;99.90;;;;;;5037771;28;20122;-81
2023/03/07 10:56:14;;;;;;;5.93;4.93;;;2.00;99.90;;;;;;5032195;28;20044;-80
2023/03/07 10:59:02;;;;;;;5.60;5.07;;;2.00;99.90;;;;;;5042016;28;20409;-81
2023/03/07 11:01:30;;;;;;;6.38;4.25;;;1.90;99.90;;;;;;5038909;28;20139;-81
2023/03/07 11:04:03;;;;;;;5.78;4.85;;;1.80;99.90;;;;;;5043004;28;20698;-81
2023/03/07 11:06:39;;;;;;;5.97;5.38;;;1.80;99.90;;;;;;5039997;28;20574;-80
2023/03/07 11:09:09;;;;;;;5.55;5.05;;;1.70;99.90;;;;;;5044052;28;20659;-80
2023/03/07 11:11:37;;;;;;;7.57;6.88;;;1.70;99.90;;;;;;5031019;28;20042;-80
2023/03/07 11:14:11;;;;;;;7.75;7.05;;;1.80;99.90;;;;;;5039683;28;20108;-81
2023/03/07 11:16:47;;;;;;;9.88;8.98;;;1.80;99.90;;;;;;5022356;28;20037;-82
2023/03/07 11:19:34;;;;;;;8.93;7.43;;;1.80;99.90;;;;;;5027794;28;20048;-82
2023/03/07 11:22:14;;;;;;;7.85;5.97;;;1.90;99.90;;;;;;5036191;28;20207;-81
2023/03/07 11:25:06;;;;;;;8.07;4.78;;;1.80;99.90;;;;;;5019950;28;20056;-81
2023/03/07 11:27:35;;;;;;;7.38;5.63;;;1.80;99.90;;;;;;5042699;28;20068;-81
2023/03/07 11:30:19;;;;;;;7.35;5.70;;;1.70;99.90;;;;;;5027331;28;20518;-80
2023/03/07 11:33:33;;;;;;;7.28;5.75;;;1.80;99.90;;;;;;5024690;28;20045;-82
2023/03/07 11:36:26;;;;;;;11.57;5.13;;;1.80;99.90;;;;;;5031224;28;20139;-80
2023/03/07 11:38:55;;;;;;;11.93;7.78;;;1.70;99.90;;;;;;5040401;28;20037;-80
2023/03/07 11:41:36;;;;;;;9.23;6.18;;;1.60;99.90;;;;;;5044322;28;20075;-79
2023/03/07 11:44:24;;;;;;;6.85;4.55;;;1.60;99.90;;;;;;5044637;28;20040;-80
2023/03/07 11:47:18;;;;;;;7.88;5.43;;;1.60;99.90;;;;;;5037014;28;20117;-79
2023/03/07 11:50:12;;;;;;;15.07;7.03;;;1.60;99.90;;;;;;5021654;28;20128;-79
2023/03/07 11:53:01;;;;;;;9.93;5.85;;;1.50;99.90;;;;;;5036785;28;20041;-79
2023/03/07 11:55:46;;;;;;;8.27;5.97;;;1.50;99.90;;;;;;5020431;28;20045;-79
2023/03/07 11:58:40;;;;;;;5.10;4.57;;;1.50;99.90;;;;;;5038188;28;20131;-79
2023/03/07 12:01:28;;;;;;;6.72;5.25;;;1.40;99.90;;;;;;5038638;28;20069;-79
2023/03/07 12:04:13;;;;;;;7.85;5.70;;;1.40;99.90;;;;;;5023963;28;20244;-79
2023/03/07 12:07:10;;;;;;;6.82;5.63;;;1.40;99.90;;;;;;5045636;28;20047;-78
2023/03/07 12:09:44;;;;;;;8.10;5.75;;;1.40;99.90;;;;;;5047819;28;20240;-79
2023/03/07 12:12:28;;;;;;;9.48;5.90;;;1.40;99.90;;;;;;5032644;28;20055;-79
2023/03/07 12:15:14;;;;;;;9.65;6.63;;;1.40;99.90;;;;;;5046667;28;20091;-79
2023/03/07 12:17:47;;;;;;;12.52;7.35;;;1.40;99.90;;;;;;5037418;28;20144;-79
2023/03/07 12:20:29;;;;;;;6.85;5.40;;;1.50;99.90;;;;;;5038305;28;20050;-80
2023/03/07 12:23:22;;;;;;;8.55;5.40;;;1.50;99.90;;;;;;5052516;28;20060;-81
2023/03/07 12:25:52;;;;;;;9.43;6.25;;;1.50;99.90;;;;;;5043884;28;20049;-80
2023/03/07 12:28:26;;;;;;;13.35;7.20;;;1.30;99.90;;;;;;5041489;28;20766;-80
2023/03/07 12:31:10;;;;;;;15.68;9.50;;;1.30;99.90;;;;;;5022791;28;20041;-79
2023/03/07 12:33:52;;;;;;;12.45;7.75;;;1.30;99.90;;;;;;5043053;28;20048;-79
2023/03/07 12:36:41;;;;;;;8.50;6.00;;;1.30;99.90;;;;;;5035692;28;20045;-79
2023/03/07 12:39:18;;;;;;;8.00;6.30;;;1.20;99.90;;;;;;5040111;28;20073;-78
2023/03/07 12:41:51;;;;;;;9.00;6.93;;;1.20;99.90;;;;;;5025726;28;20156;-78
2023/03/07 12:44:48;;;;;;;11.00;6.95;;;1.20;99.90;;;;;;5047028;28;20061;-78
2023/03/07 12:47:40;;;;;;;7.63;5.63;;;1.20;99.90;;;;;;5044074;28;20046;-78
2023/03/07 12:50:11;;;;;;;8.15;5.47;;;1.30;99.90;;;;;;5046864;28;20044;-79
2023/03/07 12:52:41;;;;;;;10.20;6.05;;;1.20;99.90;;;;;;5041847;28;20233;-81
2023/03/07 12:55:35;;;;;;;4.93;3.90;;;1.30;99.90;;;;;;5044253;28;20127;-79
2023/03/07 12:58:41;;;;;;;6.68;4.82;;;1.30;99.90;;;;;;5019657;28;20585;-79
2023/03/07 13:01:26;;;;;;;7.50;5.00;;;1.30;99.90;;;;;;5027029;28;20086;-81
2023/03/07 13:04:12;;;;;;;24.55;12.65;;;1.30;99.90;;;;;;5040126;28;20151;-79
2023/03/07 13:06:41;;;;;;;10.10;7.22;;;1.20;99.90;;;;;;5037185;28;20143;-80
2023/03/07 13:09:18;;;;;;;11.25;8.07;;;1.30;99.90;;;;;;5039480;28;20295;-81